Time;durP1;ratioP1;P1;durP2;ratioP2;P2;SDS_P1;SDS_P2;PMS_P1;PMS_P2;Temp;Humidity;BMP_temperature;BMP_pressure;BME280_temperature;BME280_humidity;BME280_pressure;Samples;Min_cycle;Max_cycle;Signal;HPM_P1;HPM_P2
2021/05/28 00:02:01;;;;;;;5.97;5.37;;;;;;;16.48;80.50;100088.88;1706663;83;22506;-71
2021/05/28 00:04:28;;;;;;;6.00;5.40;;;;;;;16.49;80.49;100090.55;1690623;83;20987;-71
2021/05/28 00:06:54;;;;;;;6.92;5.67;;;;;;;16.49;80.46;100090.55;1700080;82;21078;-71
2021/05/28 00:09:21;;;;;;;6.80;5.85;;;;;;;16.49;80.41;100083.05;1710799;82;21114;-72
2021/05/28 00:11:47;;;;;;;7.67;5.85;;;;;;;16.50;80.40;100075.38;1694058;82;21058;-71
2021/05/28 00:14:16;;;;;;;7.33;5.75;;;;;;;16.52;80.46;100076.91;1700767;82;20976;-70
2021/05/28 00:16:42;;;;;;;6.80;6.10;;;;;;;16.52;80.50;100075.57;1676743;83;21601;-70
2021/05/28 00:19:09;;;;;;;6.30;5.65;;;;;;;16.49;80.55;100073.22;1708518;82;21468;-70
2021/05/28 00:21:35;;;;;;;8.18;5.85;;;;;;;16.47;80.64;100069.89;1718356;82;21485;-71
2021/05/28 00:24:03;;;;;;;6.92;5.67;;;;;;;16.48;80.66;100075.55;1688991;82;21594;-70
2021/05/28 00:26:30;;;;;;;6.65;5.87;;;;;;;16.48;80.71;100073.39;1698701;82;22358;-70
2021/05/28 00:28:58;;;;;;;7.75;6.03;;;;;;;16.48;80.70;100075.55;1689954;84;20996;-70
2021/05/28 00:31:24;;;;;;;6.95;6.10;;;;;;;16.47;80.78;100076.55;1702953;82;21557;-72
2021/05/28 00:33:51;;;;;;;7.83;5.70;;;;;;;16.48;80.81;100076.05;1721724;82;21086;-70
2021/05/28 00:36:18;;;;;;;6.70;6.08;;;;;;;16.46;80.86;100076.73;1723912;82;21094;-70
2021/05/28 00:38:45;;;;;;;6.95;6.25;;;;;;;16.44;80.83;100078.73;1728459;81;21734;-70
2021/05/28 00:41:13;;;;;;;10.10;6.55;;;;;;;16.43;80.82;100077.91;1728241;83;21074;-70
2021/05/28 00:43:39;;;;;;;7.03;6.33;;;;;;;16.42;80.80;100077.58;1713126;82;21542;-70
2021/05/28 00:46:06;;;;;;;7.08;6.28;;;;;;;16.42;80.79;100078.91;1698497;82;21000;-70
2021/05/28 00:48:33;;;;;;;9.03;6.15;;;;;;;16.41;80.73;100073.75;1705042;82;21015;-70
2021/05/28 00:51:00;;;;;;;8.08;6.45;;;;;;;16.37;80.67;100071.06;1694078;83;22117;-70
2021/05/28 00:53:27;;;;;;;6.80;6.15;;;;;;;16.32;80.59;100067.58;1711536;82;21513;-70
2021/05/28 00:55:54;;;;;;;7.17;6.45;;;;;;;16.27;80.57;100060.06;1727863;82;21064;-72
2021/05/28 00:58:21;;;;;;;6.83;6.12;;;;;;;16.22;80.58;100057.08;1726176;82;21431;-70
2021/05/28 01:00:48;;;;;;;7.35;6.65;;;;;;;16.20;80.57;100059.55;1710812;82;21015;-70
2021/05/28 01:03:16;;;;;;;7.12;6.42;;;;;;;16.17;80.69;100053.23;1719988;82;23053;-70
2021/05/28 01:05:42;;;;;;;7.28;6.47;;;;;;;16.15;80.72;100061.39;1734758;82;21127;-70
2021/05/28 01:08:11;;;;;;;7.80;7.00;;;;;;;16.11;80.70;100062.70;1728258;82;21075;-70
2021/05/28 01:10:39;;;;;;;7.90;7.10;;;;;;;16.09;80.64;100060.72;1688324;83;21522;-71
2021/05/28 01:13:10;;;;;;;8.28;7.37;;;;;;;16.09;80.61;100055.88;1679611;83;21497;-70
2021/05/28 01:15:40;;;;;;;7.62;6.92;;;;;;;16.10;80.62;100058.88;1699159;84;21579;-70
2021/05/28 01:18:09;;;;;;;7.17;6.47;;;;;;;16.09;80.62;100046.56;1712730;83;21063;-70
2021/05/28 01:20:35;;;;;;;9.18;7.25;;;;;;;16.08;80.62;100048.39;1713664;83;20987;-70
2021/05/28 01:23:03;;;;;;;8.58;7.53;;;;;;;16.06;80.70;100041.58;1680400;83;21050;-70
2021/05/28 01:25:31;;;;;;;8.18;6.55;;;;;;;16.05;80.76;100038.08;1727880;83;21003;-70
2021/05/28 01:27:57;;;;;;;8.65;6.92;;;;;;;16.06;80.80;100040.24;1724208;83;21737;-70
2021/05/28 01:30:25;;;;;;;8.15;6.97;;;;;;;16.03;80.79;100040.91;1719640;83;20956;-71
2021/05/28 01:32:52;;;;;;;9.00;6.87;;;;;;;16.03;80.84;100044.08;1687917;83;21580;-70
2021/05/28 01:35:19;;;;;;;8.53;7.62;;;;;;;16.03;80.92;100039.58;1723378;83;21023;-71
2021/05/28 01:37:46;;;;;;;9.00;8.08;;;;;;;16.03;80.96;100043.58;1698535;83;20979;-70
2021/05/28 01:40:13;;;;;;;9.83;7.95;;;;;;;16.03;81.06;100038.25;1720473;82;21741;-70
2021/05/28 01:42:40;;;;;;;8.95;8.08;;;;;;;16.04;81.15;100040.41;1723457;83;20984;-72
2021/05/28 01:45:09;;;;;;;8.80;8.00;;;;;;;16.04;81.26;100041.74;1714718;83;20987;-71
2021/05/28 01:47:35;;;;;;;9.88;8.03;;;;;;;16.05;81.44;100045.23;1687010;83;21019;-70
2021/05/28 01:50:03;;;;;;;9.28;8.35;;;;;;;16.06;81.54;100040.24;1712355;83;21052;-70
2021/05/28 01:52:30;;;;;;;11.18;8.33;;;;;;;16.06;81.56;100044.23;1664620;83;21858;-70
2021/05/28 01:54:56;;;;;;;8.85;7.70;;;;;;;16.08;81.72;100036.91;1677184;83;20979;-70
2021/05/28 01:57:23;;;;;;;10.05;8.43;;;;;;;16.09;81.85;100038.57;1677212;83;21082;-70
2021/05/28 01:59:50;;;;;;;9.58;8.63;;;;;;;16.09;81.87;100029.24;1707501;83;21182;-70
2021/05/28 02:02:16;;;;;;;11.08;8.70;;;;;;;16.10;81.98;100027.74;1719235;83;20979;-70
2021/05/28 02:04:42;;;;;;;9.10;8.25;;;;;;;16.11;82.16;100030.73;1697567;83;21768;-70
2021/05/28 02:07:10;;;;;;;9.45;8.55;;;;;;;16.12;82.24;100031.09;1699144;84;21027;-70
2021/05/28 02:09:37;;;;;;;9.48;8.15;;;;;;;16.11;82.30;100028.07;1696086;83;21090;-70
2021/05/28 02:12:06;;;;;;;9.25;8.40;;;;;;;16.10;82.34;100028.23;1721205;83;20983;-70
2021/05/28 02:14:34;;;;;;;9.50;8.60;;;;;;;16.10;82.34;100026.41;1701543;83;21051;-71
2021/05/28 02:17:01;;;;;;;11.05;10.00;;;;;;;16.11;82.39;100021.91;1712216;83;21758;-70
2021/05/28 02:19:27;;;;;;;11.08;8.98;;;;;;;16.12;82.51;100031.59;1660378;85;20991;-70
2021/05/28 02:21:54;;;;;;;9.35;8.48;;;;;;;16.11;82.63;100020.08;1670143;84;21046;-70
2021/05/28 02:24:22;;;;;;;9.13;8.35;;;;;;;16.11;82.63;100024.58;1696566;84;21541;-70
2021/05/28 02:26:50;;;;;;;11.22;10.13;;;;;;;16.09;82.60;100010.59;1693744;83;20984;-70
2021/05/28 02:29:17;;;;;;;10.53;9.63;;;;;;;16.09;82.61;100012.76;1669440;84;21702;-72
2021/05/28 02:31:43;;;;;;;9.85;8.95;;;;;;;16.11;82.72;100017.41;1709263;83;21047;-70
2021/05/28 02:34:10;;;;;;;10.45;9.48;;;;;;;16.12;82.82;100019.61;1725704;83;21019;-70
2021/05/28 02:36:36;;;;;;;10.55;9.55;;;;;;;16.12;82.85;100016.45;1721060;82;20996;-70
2021/05/28 02:39:06;;;;;;;12.65;10.82;;;;;;;16.11;82.85;100021.91;1700866;83;21035;-71
2021/05/28 02:41:34;;;;;;;12.45;10.80;;;;;;;16.13;82.95;100017.27;1712504;82;21770;-70
2021/05/28 02:44:01;;;;;;;12.55;11.15;;;;;;;16.16;83.13;100022.27;1713150;83;21000;-70
2021/05/28 02:46:29;;;;;;;12.73;11.38;;;;;;;16.19;83.28;100021.92;1687979;82;20975;-71
2021/05/28 02:48:57;;;;;;;11.48;10.10;;;;;;;16.22;83.35;100024.27;1720096;82;21462;-70
2021/05/28 02:51:23;;;;;;;12.10;10.78;;;;;;;16.24;83.41;100026.27;1728276;83;21561;-70
2021/05/28 02:53:50;;;;;;;11.57;10.38;;;;;;;16.23;83.43;100028.59;1728358;83;22604;-71
2021/05/28 02:56:16;;;;;;;12.88;10.15;;;;;;;16.24;83.45;100019.60;1705006;83;21474;-70
2021/05/28 02:58:43;;;;;;;11.78;10.32;;;;;;;16.25;83.41;100023.93;1692514;83;21541;-70
2021/05/28 03:01:09;;;;;;;11.93;10.18;;;;;;;16.26;83.46;100018.42;1680794;84;21523;-70
2021/05/28 03:03:37;;;;;;;13.22;10.90;;;;;;;16.29;83.43;100018.08;1673519;84;21007;-70
2021/05/28 03:06:04;;;;;;;11.05;9.98;;;;;;;16.31;83.42;100018.77;1683190;84;21753;-70
2021/05/28 03:08:30;;;;;;;9.60;8.70;;;;;;;16.34;83.46;100018.93;1697255;83;21633;-70
2021/05/28 03:10:58;;;;;;;12.03;10.20;;;;;;;16.33;83.40;100023.93;1710912;83;21329;-70
2021/05/28 03:13:25;;;;;;;12.20;10.70;;;;;;;16.34;83.35;100025.59;1710934;83;21043;-70
2021/05/28 03:15:53;;;;;;;11.68;10.43;;;;;;;16.36;83.38;100020.92;1726073;83;21056;-70
2021/05/28 03:18:23;;;;;;;13.03;11.73;;;;;;;16.40;83.44;100020.91;1701028;82;21114;-70
2021/05/28 03:20:56;;;;;;;15.48;13.53;;;;;;;16.47;83.56;100022.41;1695361;83;21502;-70
2021/05/28 03:23:19;;;;;;;15.23;13.38;;;;;;;16.53;83.77;100023.08;1699022;83;20956;-71
2021/05/28 03:25:46;;;;;;;15.90;13.70;;;;;;;16.60;83.95;100022.75;1699667;83;21019;-71
2021/05/28 03:28:12;;;;;;;14.65;13.15;;;;;;;16.65;84.08;100027.05;1699153;84;21050;-70
2021/05/28 03:30:39;;;;;;;14.85;13.45;;;;;;;16.69;84.26;100024.40;1700069;82;21780;-71
2021/05/28 03:33:06;;;;;;;16.15;14.15;;;;;;;16.75;84.38;100024.23;1718248;82;21043;-70
2021/05/28 03:35:32;;;;;;;15.58;13.98;;;;;;;16.79;84.44;100025.07;1682755;83;21055;-71
2021/05/28 03:37:59;;;;;;;18.73;13.95;;;;;;;16.85;84.53;100028.38;1671011;85;21022;-70
2021/05/28 03:40:26;;;;;;;14.85;13.40;;;;;;;16.89;84.58;100030.22;1712326;82;21104;-71
2021/05/28 03:42:52;;;;;;;16.12;14.38;;;;;;;16.94;84.61;100029.19;1685619;82;21735;-70
2021/05/28 03:45:19;;;;;;;14.98;13.38;;;;;;;16.99;84.67;100030.85;1728056;82;21030;-70
2021/05/28 03:47:46;;;;;;;16.82;14.83;;;;;;;17.04;84.71;100028.98;1715026;82;20995;-71
2021/05/28 03:50:13;;;;;;;16.65;14.85;;;;;;;17.07;84.77;100038.80;1723254;83;21130;-70
2021/05/28 03:52:39;;;;;;;16.35;14.73;;;;;;;17.12;84.87;100038.30;1708919;82;21533;-71
2021/05/28 03:55:08;;;;;;;17.07;15.28;;;;;;;17.15;84.92;100032.61;1707993;82;22220;-71
2021/05/28 03:57:35;;;;;;;17.30;15.43;;;;;;;17.20;84.98;100031.61;1709788;82;21044;-70
2021/05/28 04:00:02;;;;;;;16.62;14.33;;;;;;;17.26;85.03;100028.23;1710906;82;21095;-72
2021/05/28 04:02:28;;;;;;;15.80;14.23;;;;;;;17.34;85.05;100026.03;1702278;82;20979;-71
2021/05/28 04:04:55;;;;;;;17.55;13.38;;;;;;;17.43;85.11;100023.15;1712006;82;21031;-71
2021/05/28 04:07:24;;;;;;;14.55;13.13;;;;;;;17.52;85.13;100025.28;1728622;82;22183;-71
2021/05/28 04:09:50;;;;;;;16.73;12.88;;;;;;;17.59;85.03;100023.58;1691785;83;21026;-71
2021/05/28 04:12:18;;;;;;;14.18;12.60;;;;;;;17.67;84.94;100026.20;1697593;82;21000;-71
2021/05/28 04:14:45;;;;;;;13.53;12.03;;;;;;;17.74;84.80;100026.34;1689572;82;21134;-71
2021/05/28 04:17:12;;;;;;;14.00;11.45;;;;;;;17.83;84.63;100023.13;1724184;82;21027;-69
2021/05/28 04:19:39;;;;;;;15.23;11.18;;;;;;;17.89;84.42;100022.42;1692923;83;22539;-70
2021/05/28 04:22:05;;;;;;;11.25;10.10;;;;;;;17.96;84.21;100019.38;1698009;84;21501;-70
2021/05/28 04:24:32;;;;;;;12.10;9.98;;;;;;;18.01;83.92;100015.64;1692717;82;21536;-73
2021/05/28 04:26:58;;;;;;;10.98;9.80;;;;;;;18.06;83.53;100011.12;1699078;83;21461;-69
2021/05/28 04:29:26;;;;;;;12.93;9.93;;;;;;;18.11;83.26;100010.89;1695282;82;21055;-68
2021/05/28 04:31:53;;;;;;;11.60;10.08;;;;;;;18.14;82.81;100007.84;1678225;84;21781;-70
2021/05/28 04:34:19;;;;;;;11.75;9.63;;;;;;;18.18;82.56;100007.00;1680499;83;20999;-71
2021/05/28 04:36:46;;;;;;;12.33;9.75;;;;;;;18.26;82.33;100009.11;1706800;82;21035;-75
2021/05/28 04:39:12;;;;;;;12.20;9.13;;;;;;;18.33;81.98;100009.19;1720636;82;21035;-71
2021/05/28 04:41:39;;;;;;;12.55;9.45;;;;;;;18.36;81.42;100008.02;1723927;82;21038;-71
2021/05/28 04:44:06;;;;;;;10.43;9.33;;;;;;;18.35;81.03;100001.84;1693060;82;22203;-75
2021/05/28 04:46:33;;;;;;;11.30;9.30;;;;;;;18.40;80.87;100005.30;1680644;85;21058;-74
2021/05/28 04:49:00;;;;;;;10.75;8.13;;;;;;;18.45;80.78;100001.08;1698939;82;21569;-73
2021/05/28 04:51:27;;;;;;;10.48;8.15;;;;;;;18.54;80.47;100005.84;1698265;82;21755;-74
2021/05/28 04:53:55;;;;;;;10.38;8.63;;;;;;;18.57;80.04;100008.15;1717985;82;21047;-73
2021/05/28 04:56:21;;;;;;;9.60;8.65;;;;;;;18.63;79.86;100006.60;1705774;82;21809;-74
2021/05/28 04:58:48;;;;;;;8.55;7.03;;;;;;;18.67;79.75;100003.39;1733854;82;21479;-74
2021/05/28 05:01:14;;;;;;;9.70;7.25;;;;;;;18.72;79.52;100001.49;1687039;82;21497;-73
2021/05/28 05:03:41;;;;;;;8.90;7.28;;;;;;;18.77;79.28;100003.95;1672074;85;21588;-73
2021/05/28 05:06:08;;;;;;;9.53;7.05;;;;;;;18.81;79.11;100002.56;1671350;85;20987;-73
2021/05/28 05:08:40;;;;;;;9.18;6.97;;;;;;;18.85;78.89;100005.20;1672061;84;21789;-73
2021/05/28 05:11:04;;;;;;;10.00;7.50;;;;;;;18.87;78.25;100003.68;1674329;83;21083;-72
2021/05/28 05:13:31;;;;;;;9.20;6.65;;;;;;;18.87;77.91;100001.00;1700752;83;21126;-73
2021/05/28 05:15:58;;;;;;;8.13;6.40;;;;;;;18.90;77.63;100003.30;1700046;83;21015;-72
2021/05/28 05:18:26;;;;;;;8.10;5.83;;;;;;;18.96;77.51;100005.77;1673920;84;21007;-72
2021/05/28 05:20:54;;;;;;;7.85;6.17;;;;;;;19.01;77.35;100004.68;1687892;83;21039;-73
2021/05/28 05:23:21;;;;;;;8.23;6.45;;;;;;;19.01;76.77;100006.02;1699477;83;21028;-73
2021/05/28 05:25:48;;;;;;;7.90;5.92;;;;;;;19.03;76.66;100010.20;1698657;84;21054;-73
2021/05/28 05:28:15;;;;;;;6.90;6.20;;;;;;;19.10;76.49;100007.59;1722802;83;21466;-74
2021/05/28 05:30:41;;;;;;;10.23;6.20;;;;;;;19.19;76.56;100007.81;1726849;83;21616;-73
2021/05/28 05:33:07;;;;;;;7.20;5.75;;;;;;;19.27;76.38;100005.55;1698997;84;22509;-73
2021/05/28 05:35:34;;;;;;;8.70;5.90;;;;;;;19.31;76.07;99999.64;1672766;84;21059;-72
2021/05/28 05:38:01;;;;;;;7.85;5.95;;;;;;;19.36;75.77;99997.22;1671074;85;21118;-74
2021/05/28 05:40:28;;;;;;;8.20;6.10;;;;;;;19.42;75.64;99994.31;1670746;85;21006;-72
2021/05/28 05:42:54;;;;;;;6.62;5.83;;;;;;;19.47;75.43;99991.88;1673334;85;21496;-72
2021/05/28 05:45:21;;;;;;;9.30;5.83;;;;;;;19.56;75.37;99992.63;1673493;84;22269;-74
2021/05/28 05:47:47;;;;;;;7.25;6.08;;;;;;;19.64;74.96;99997.36;1675581;83;20987;-72
2021/05/28 05:50:15;;;;;;;10.65;5.50;;;;;;;19.72;74.62;99993.74;1692483;83;21063;-74
2021/05/28 05:52:42;;;;;;;8.18;5.45;;;;;;;19.78;73.97;99998.83;1691192;83;21090;-72
2021/05/28 05:55:10;;;;;;;13.15;5.25;;;;;;;19.78;73.50;100000.17;1674072;83;21038;-73
2021/05/28 05:57:38;;;;;;;7.83;5.10;;;;;;;19.78;73.16;99996.98;1641181;86;21813;-72
2021/05/28 06:00:06;;;;;;;8.15;4.70;;;;;;;19.82;72.99;99994.26;1685373;84;21051;-72
2021/05/28 06:02:34;;;;;;;6.47;4.90;;;;;;;19.88;72.63;99993.50;1711892;82;21547;-73
2021/05/28 06:05:00;;;;;;;6.12;4.60;;;;;;;19.93;71.95;99989.72;1704594;83;21501;-73
2021/05/28 06:07:27;;;;;;;5.80;4.45;;;;;;;20.01;71.85;99986.92;1716254;83;21504;-73
2021/05/28 06:09:53;;;;;;;6.37;4.33;;;;;;;20.16;71.65;99992.19;1691429;83;22515;-72
2021/05/28 06:12:20;;;;;;;7.45;3.92;;;;;;;20.27;71.05;99994.37;1700589;83;20900;-73
2021/05/28 06:14:48;;;;;;;8.30;4.25;;;;;;;20.36;70.52;99996.38;1730412;83;20980;-73
2021/05/28 06:17:15;;;;;;;5.08;3.92;;;;;;;20.42;69.65;99992.09;1709096;83;21118;-73
2021/05/28 06:19:41;;;;;;;8.15;4.70;;;;;;;20.50;69.64;99996.84;1701406;84;21066;-73
2021/05/28 06:22:07;;;;;;;11.08;4.25;;;;;;;20.59;69.29;99989.47;1675110;83;21767;-77
2021/05/28 06:24:34;;;;;;;5.03;4.20;;;;;;;20.70;68.90;99987.58;1687679;83;21118;-77
2021/05/28 06:27:00;;;;;;;8.70;4.22;;;;;;;20.81;68.32;99979.48;1689631;83;21493;-77
2021/05/28 06:29:27;;;;;;;5.90;4.12;;;;;;;20.91;68.09;99978.61;1704561;82;21054;-76
2021/05/28 06:31:54;;;;;;;5.20;3.98;;;;;;;21.01;66.67;99978.25;1715775;83;21006;-71
2021/05/28 06:34:20;;;;;;;6.17;3.90;;;;;;;21.06;66.22;99983.34;1713687;83;21728;-71
2021/05/28 06:36:47;;;;;;;5.95;3.30;;;;;;;21.15;66.20;99979.47;1702152;82;20964;-70
2021/05/28 06:39:14;;;;;;;4.28;2.92;;;;;;;21.25;65.84;99980.44;1708616;84;21082;-70
2021/05/28 06:41:42;;;;;;;3.70;3.10;;;;;;;21.38;65.36;99975.66;1703786;83;21137;-72
2021/05/28 06:44:09;;;;;;;6.22;3.00;;;;;;;21.46;64.91;99980.84;1678981;83;21723;-71
2021/05/28 06:46:35;;;;;;;5.30;3.37;;;;;;;21.42;63.80;99974.20;1730565;82;22263;-71
2021/05/28 06:49:03;;;;;;;4.97;3.10;;;;;;;21.43;63.57;99975.89;1716355;83;21572;-73
2021/05/28 06:51:30;;;;;;;6.87;3.02;;;;;;;21.43;63.21;99977.23;1701433;83;21702;-71
2021/05/28 06:53:56;;;;;;;10.72;4.08;;;;;;;21.43;63.13;99975.89;1702157;83;20991;-71
2021/05/28 06:56:23;;;;;;;6.10;3.50;;;;;;;21.47;62.43;99973.62;1701307;84;21062;-71
2021/05/28 06:58:50;;;;;;;5.25;3.25;;;;;;;21.43;62.14;99971.86;1697687;83;22386;-71
2021/05/28 07:01:19;;;;;;;4.12;3.10;;;;;;;21.42;62.15;99971.03;1702345;84;20971;-71
2021/05/28 07:03:45;;;;;;;4.22;2.92;;;;;;;21.47;61.76;99962.87;1709632;83;21039;-71
2021/05/28 07:06:11;;;;;;;6.78;2.90;;;;;;;21.52;61.70;99963.93;1717705;83;21008;-70
2021/05/28 07:08:38;;;;;;;7.55;3.00;;;;;;;21.61;61.31;99956.48;1710751;83;21055;-71
2021/05/28 07:11:07;;;;;;;5.05;2.77;;;;;;;21.69;60.80;99959.81;1684577;83;22492;-72
2021/05/28 07:13:33;;;;;;;3.60;2.87;;;;;;;21.78;60.61;99963.13;1672039;85;21074;-72
2021/05/28 07:16:02;;;;;;;4.20;2.85;;;;;;;21.87;61.22;99948.98;1673855;83;21062;-72
2021/05/28 07:18:29;;;;;;;4.28;2.83;;;;;;;22.03;60.79;99951.28;1694021;84;21015;-71
2021/05/28 07:20:55;;;;;;;5.65;3.12;;;;;;;22.20;60.14;99957.94;1672940;85;21083;-72
2021/05/28 07:23:23;;;;;;;4.92;3.10;;;;;;;22.33;59.95;99954.92;1676999;84;21766;-71
2021/05/28 07:25:50;;;;;;;4.87;2.77;;;;;;;22.48;59.80;99950.13;1693739;83;21481;-71
2021/05/28 07:28:16;;;;;;;3.15;2.30;;;;;;;22.66;59.69;99949.47;1709060;83;20972;-71
2021/05/28 07:30:42;;;;;;;4.30;2.55;;;;;;;22.79;57.17;99948.94;1701220;84;21074;-72
2021/05/28 07:33:09;;;;;;;5.78;2.35;;;;;;;22.86;55.75;99940.84;1685107;83;21148;-71
2021/05/28 07:35:36;;;;;;;2.80;2.50;;;;;;;22.87;55.24;99945.72;1698342;83;21741;-71
2021/05/28 07:38:02;;;;;;;4.05;2.65;;;;;;;22.94;54.98;99939.27;1706011;83;21129;-71
2021/05/28 07:40:28;;;;;;;2.77;2.30;;;;;;;23.00;54.88;99942.99;1678612;83;20990;-71
2021/05/28 07:42:55;;;;;;;4.53;2.40;;;;;;;23.07;54.32;99945.15;1678490;83;21074;-70
2021/05/28 07:45:23;;;;;;;2.83;2.45;;;;;;;23.17;54.26;99944.70;1670825;85;21050;-70
2021/05/28 07:47:49;;;;;;;2.90;2.30;;;;;;;23.28;54.54;99944.84;1684615;84;22202;-71
2021/05/28 07:50:16;;;;;;;4.80;2.50;;;;;;;23.37;54.23;99940.86;1696588;83;21054;-71
2021/05/28 07:52:42;;;;;;;3.42;2.50;;;;;;;23.48;54.05;99941.21;1700207;83;21039;-71
2021/05/28 07:55:10;;;;;;;4.65;2.90;;;;;;;23.58;53.26;99946.95;1699116;84;20995;-70
2021/05/28 07:57:36;;;;;;;3.33;2.40;;;;;;;23.61;51.81;99945.20;1699198;84;20999;-71
2021/05/28 08:00:05;;;;;;;4.92;2.52;;;;;;;23.65;52.61;99943.21;1684965;84;21755;-71
2021/05/28 08:02:33;;;;;;;4.00;2.20;;;;;;;23.76;52.53;99940.34;1670908;85;21018;-71
2021/05/28 08:05:00;;;;;;;3.60;2.40;;;;;;;23.86;52.30;99942.02;1671060;85;20988;-71
2021/05/28 08:07:28;;;;;;;4.42;2.47;;;;;;;23.90;51.74;99933.78;1699937;83;21039;-71
2021/05/28 08:09:55;;;;;;;3.37;2.30;;;;;;;23.97;51.54;99934.56;1712632;83;20944;-70
2021/05/28 08:12:22;;;;;;;3.30;2.00;;;;;;;23.96;49.87;99933.44;1684482;84;21776;-71
2021/05/28 08:14:49;;;;;;;3.35;2.10;;;;;;;23.94;49.90;99928.27;1670782;85;21636;-71
2021/05/28 08:17:16;;;;;;;3.02;2.12;;;;;;;24.05;50.34;99928.61;1674549;82;21581;-71
2021/05/28 08:19:42;;;;;;;2.65;2.10;;;;;;;24.18;50.02;99929.83;1728114;83;21067;-71
2021/05/28 08:22:08;;;;;;;3.62;2.17;;;;;;;24.32;49.12;99933.25;1728195;83;20979;-69
2021/05/28 08:24:35;;;;;;;5.03;2.30;;;;;;;24.39;49.07;99932.67;1690370;83;22166;-72
2021/05/28 08:27:02;;;;;;;4.37;2.25;;;;;;;24.46;48.54;99927.52;1698455;82;21087;-73
2021/05/28 08:29:28;;;;;;;4.33;2.08;;;;;;;24.48;46.91;99924.06;1683156;82;21054;-72
2021/05/28 08:31:54;;;;;;;4.90;1.90;;;;;;;24.53;47.83;99924.75;1657389;84;21102;-73
2021/05/28 08:34:21;;;;;;;4.35;2.08;;;;;;;24.66;47.17;99922.43;1705695;82;21668;-71
2021/05/28 08:36:49;;;;;;;6.42;1.90;;;;;;;24.75;46.31;99921.91;1683218;84;21052;-71
2021/05/28 08:39:15;;;;;;;6.95;2.17;;;;;;;24.85;45.78;99915.97;1699197;83;21043;-71
2021/05/28 08:41:43;;;;;;;7.17;2.05;;;;;;;24.86;45.51;99914.92;1701174;82;21545;-70
2021/05/28 08:44:11;;;;;;;2.87;1.80;;;;;;;24.82;45.39;99915.91;1699477;83;21059;-71
2021/05/28 08:46:38;;;;;;;8.08;1.92;;;;;;;24.91;45.64;99916.43;1727448;82;21513;-70
2021/05/28 08:49:09;;;;;;;3.62;2.20;;;;;;;25.04;46.05;99908.18;1710356;83;22188;-70
2021/05/28 08:51:36;;;;;;;3.52;2.27;;;;;;;25.20;46.40;99899.16;1682647;84;21015;-71
2021/05/28 08:54:06;;;;;;;3.25;2.00;;;;;;;25.31;45.79;99897.02;1697088;84;21039;-71
2021/05/28 08:56:33;;;;;;;3.20;2.10;;;;;;;25.41;45.46;99889.17;1699022;84;21046;-70
2021/05/28 08:59:00;;;;;;;5.17;1.90;;;;;;;25.51;45.48;99890.80;1698063;84;21023;-70
2021/05/28 09:01:26;;;;;;;3.80;2.17;;;;;;;25.57;45.41;99886.32;1679271;84;21826;-71
2021/05/28 09:03:58;;;;;;;7.85;2.17;;;;;;;25.64;45.41;99889.76;1681042;84;21086;-70
2021/05/28 09:06:27;;;;;;;3.92;2.15;;;;;;;25.77;46.08;99877.42;1678034;83;21054;-70
2021/05/28 09:08:53;;;;;;;3.83;2.20;;;;;;;25.92;46.27;99881.84;1689311;83;21098;-72
2021/05/28 09:11:20;;;;;;;2.92;2.02;;;;;;;26.04;45.49;99879.66;1648925;85;21565;-71
2021/05/28 09:13:52;;;;;;;3.60;2.30;;;;;;;26.17;45.90;99878.09;1716374;83;22312;-71
2021/05/28 09:16:29;;;;;;;6.60;2.42;;;;;;;26.37;46.66;99879.93;1679641;83;20987;-70
2021/05/28 09:19:01;;;;;;;4.45;2.60;;;;;;;26.53;46.17;99885.13;1675008;83;21520;-71
2021/05/28 09:21:35;;;;;;;4.80;2.50;;;;;;;26.60;45.91;99878.23;1702500;82;21131;-72
2021/05/28 09:24:07;;;;;;;3.20;2.65;;;;;;;26.63;46.06;99877.75;1699095;84;21601;-71
2021/05/28 09:26:35;;;;;;;3.62;2.40;;;;;;;26.70;46.81;99872.50;1699078;84;21773;-70
2021/05/28 09:29:05;;;;;;;6.53;2.50;;;;;;;26.84;46.94;99873.60;1698936;84;21522;-74
2021/05/28 09:31:32;;;;;;;3.47;2.25;;;;;;;26.99;45.46;99866.58;1695639;83;21086;-73
2021/05/28 09:33:59;;;;;;;3.75;2.35;;;;;;;27.06;43.93;99870.55;1700009;84;21070;-72
2021/05/28 09:36:28;;;;;;;3.40;2.42;;;;;;;27.11;44.06;99870.63;1696608;83;21057;-72
2021/05/28 09:39:01;;;;;;;5.65;2.50;;;;;;;27.21;44.43;99864.56;1670889;85;21865;-71
2021/05/28 09:41:46;;;;;;;3.90;2.50;;;;;;;27.22;44.34;99864.89;1679533;83;21083;-73
2021/05/28 09:44:25;;;;;;;3.92;2.40;;;;;;;27.24;44.70;99858.14;1728719;82;21055;-73
2021/05/28 09:47:17;;;;;;;4.08;2.40;;;;;;;27.26;44.45;99858.72;1669882;85;21078;-72
2021/05/28 09:49:50;;;;;;;7.35;2.60;;;;;;;27.38;45.39;99855.94;1673411;84;21062;-72
2021/05/28 09:52:25;;;;;;;5.75;2.40;;;;;;;27.54;45.65;99847.54;1672892;85;22404;-72
2021/05/28 09:55:03;;;;;;;7.22;2.72;;;;;;;27.52;43.27;99848.33;1672820;85;21614;-72
2021/05/28 09:57:39;;;;;;;4.65;2.80;;;;;;;27.49;44.32;99851.51;1671792;85;21508;-72
2021/05/28 10:00:32;;;;;;;5.95;2.30;;;;;;;27.45;43.35;99842.23;1718668;83;21098;-72
2021/05/28 10:03:23;;;;;;;4.83;2.52;;;;;;;27.38;43.94;99845.91;1730160;82;20996;-72
2021/05/28 10:05:53;;;;;;;4.65;2.80;;;;;;;27.43;43.13;99837.59;1717537;82;22272;-72
2021/05/28 10:08:22;;;;;;;4.67;2.55;;;;;;;27.35;42.90;99835.56;1672718;85;21030;-73
2021/05/28 10:10:51;;;;;;;6.08;2.60;;;;;;;27.37;43.50;99833.42;1672658;85;20967;-73
2021/05/28 10:13:19;;;;;;;5.87;2.50;;;;;;;27.50;43.26;99820.06;1682606;83;21035;-75
2021/05/28 10:15:50;;;;;;;5.37;2.52;;;;;;;27.56;44.19;99822.34;1725962;82;21091;-75
2021/05/28 10:18:17;;;;;;;3.77;2.50;;;;;;;27.75;43.68;99822.41;1729557;82;22330;-72
2021/05/28 10:20:50;;;;;;;2.30;2.10;;;;;;;27.97;43.24;99821.09;1665018;85;21051;-73
2021/05/28 10:23:17;;;;;;;5.85;2.25;;;;;;;28.15;41.27;99819.46;1638740;86;21015;-75
2021/05/28 10:25:45;;;;;;;2.50;2.20;;;;;;;28.33;41.05;99817.02;1627670;87;21105;-76
2021/05/28 10:28:21;;;;;;;2.15;1.95;;;;;;;28.48;40.85;99819.95;1644055;87;21100;-75
2021/05/28 10:30:50;;;;;;;2.72;2.00;;;;;;;28.67;38.47;99813.66;1628014;86;21803;-75
2021/05/28 10:33:32;;;;;;;4.75;2.50;;;;;;;28.74;37.22;99808.00;1626726;86;21066;-73
2021/05/28 10:36:07;;;;;;;6.00;2.00;;;;;;;28.86;38.36;99793.75;1691003;84;20990;-71
2021/05/28 10:38:38;;;;;;;4.92;1.95;;;;;;;28.98;37.52;99795.80;1723581;82;21111;-72
2021/05/28 10:41:20;;;;;;;4.30;2.00;;;;;;;29.17;37.98;99796.80;1680979;83;21087;-71
2021/05/28 10:43:54;;;;;;;2.95;1.90;;;;;;;29.39;37.28;99795.35;1695812;83;21882;-72
2021/05/28 10:46:21;;;;;;;4.42;1.82;;;;;;;29.45;35.66;99791.61;1710632;83;21004;-71
2021/05/28 10:49:00;;;;;;;3.02;1.80;;;;;;;29.64;36.88;99790.16;1719668;83;21114;-71
2021/05/28 10:51:37;;;;;;;2.83;1.70;;;;;;;29.87;35.08;99788.94;1722055;83;20983;-71
2021/05/28 10:54:09;;;;;;;3.42;1.80;;;;;;;30.02;35.33;99795.03;1726304;83;21031;-71
2021/05/28 10:56:41;;;;;;;3.80;1.83;;;;;;;30.15;35.18;99798.11;1715079;82;21750;-73
2021/05/28 10:59:16;;;;;;;4.00;1.73;;;;;;;30.14;32.42;99792.39;1705510;83;20991;-72
2021/05/28 11:01:55;;;;;;;2.40;1.70;;;;;;;29.88;30.46;99795.47;1722151;83;21113;-70
2021/05/28 11:04:33;;;;;;;4.12;1.90;;;;;;;29.62;32.08;99792.29;1710435;82;21071;-69
2021/05/28 11:07:05;;;;;;;2.75;2.00;;;;;;;29.37;33.69;99786.09;1703494;82;21097;-74
2021/05/28 11:09:50;;;;;;;4.60;1.80;;;;;;;29.19;34.92;99781.04;1704335;83;21764;-72
2021/05/28 11:12:26;;;;;;;5.35;2.15;;;;;;;28.96;35.59;99777.58;1717829;82;21074;-72
2021/05/28 11:15:09;;;;;;;4.70;2.00;;;;;;;28.90;36.76;99778.59;1678440;82;21078;-71
2021/05/28 11:18:03;;;;;;;4.17;2.02;;;;;;;28.89;36.83;99775.59;1671262;84;21584;-71
2021/05/28 11:20:39;;;;;;;9.28;2.45;;;;;;;28.75;36.22;99763.44;1671263;85;21007;-72
2021/05/28 11:23:15;;;;;;;5.17;2.20;;;;;;;28.75;36.22;99763.44;1671351;84;22327;-71
2021/05/28 11:25:48;;;;;;;3.95;1.82;;;;;;;28.66;36.50;99760.38;1674952;83;21621;-72
2021/05/28 11:28:16;;;;;;;2.35;1.92;;;;;;;28.51;35.88;99770.53;1723010;82;21034;-72
2021/05/28 11:30:54;;;;;;;2.95;2.05;;;;;;;28.32;35.56;99772.47;1718228;83;21109;-71
2021/05/28 11:33:39;;;;;;;5.58;2.12;;;;;;;28.03;35.27;99777.22;1672713;84;21027;-71